Ngurah Rai (Bali) International Airport
WADD : now visible

Airfield :











YOU CAN JOIN US ON...

 
LOGIN :

Register | Disclaimer

   EN    FR    IT 

 









Legend :    VFR   Marginal VFR   IFR   Intensive IFR   Very Intensive IFR
Visi :
Ceiling :
>= 8 km
>= 3000ft
5 to 8 km
1000 to 3000 ft
1500m to 5 km
500 to 1000 ft
800 to 1500m
200 to 500 ft
< 800m
< 200 ft
Symbols :   Thunderstorms  Fog  Heavy snow  Heavy precipitations  Wind > 20 kt







- Airport Elevation : 14 ft
- IATA code : DPS


WADD - Ngurah Rai (Bali) International

CURRENT METAR :
  • 210600Z 23007KT 9999 FEW016CB SCT017 31/25 Q1010 NOSIG

EXPIRED METARs :
  • 210530Z 23009KT 9999 FEW016CB FEW017 31/26 Q1011 NOSIG
  • 210500Z 23007KT 9999 FEW016CB FEW017 31/26 Q1011 NOSIG
  • 210430Z 22007KT 9999 FEW016CB FEW017 31/26 Q1012 NOSIG
  • 210400Z 22006KT 9999 FEW017 31/24 Q1012 NOSIG
  • 210330Z 17004KT 140V210 9999 FEW017 31/24 Q1013 NOSIG

TAF TAF WADD
Valid from the 21 at 06:00 until the 22 at 06:00 UTC


210500Z 2106/2206 VRB05KT 9999 SCT016
TEMPO 2106/2110 5000 TSRA FEW015CB BKN015
TEMPO 2120/2200 5000 TSRA FEW015CB BKN016
WAAF FIR / Asia



MET'MAP, your aeronautical weather chart ! - Copyright ORBIFLY December 2007 - Disclaimer

ORBIFLY MET'MAP TEAM :

Programming & Development : Alexandra Zaïnal
Concept & Development : Baudouin d'Aumeries
Co-Development & Prog : Marc-Olivier Méhu
Technical & hardware support : Manuel Goepfert

Contact : metmap@orbifly.com




SOURCES & CREDITS :

   NOAA       Earth
Advisory